Time;durP1;ratioP1;P1;durP2;ratioP2;P2;SDS_P1;SDS_P2;PMS_P1;PMS_P2;Temp;Humidity;BMP_temperature;BMP_pressure;BME280_temperature;BME280_humidity;BME280_pressure;Samples;Min_cycle;Max_cycle;Signal;HPM_P1;HPM_P2
2022/05/05 00:01:45;;;;;;;;;15.00;14.33;;;;;16.46;51.92;101305.69;5054285;28;47805;-62
2022/05/05 00:04:11;;;;;;;;;12.33;11.67;;;;;16.43;52.79;101318.28;5055737;28;45419;-62
2022/05/05 00:06:37;;;;;;;;;13.50;13.00;;;;;16.44;52.32;101318.22;5069931;28;45593;-61
2022/05/05 00:09:03;;;;;;;;;14.00;14.00;;;;;16.46;52.26;101311.00;5074975;28;45687;-62
2022/05/05 00:14:24;;;;;;;;;12.33;12.33;;;;;16.42;52.09;101313.91;5065313;28;45436;-63
2022/05/05 00:17:03;;;;;;;;;13.33;13.33;;;;;16.42;51.94;101312.13;5054708;28;45377;-63
2022/05/05 00:19:30;;;;;;;;;15.67;14.33;;;;;16.43;51.32;101319.13;5055854;28;46137;-59
2022/05/05 00:21:56;;;;;;;;;18.33;16.67;;;;;16.41;51.59;101328.09;5053944;28;46127;-62
2022/05/05 00:24:22;;;;;;;;;14.67;14.33;;;;;16.35;51.93;101324.81;5054312;28;45526;-62
2022/05/05 00:26:47;;;;;;;;;14.00;14.00;;;;;16.33;51.80;101328.47;5054550;28;45633;-62
2022/05/05 00:29:13;;;;;;;;;14.33;14.33;;;;;16.24;52.31;101321.81;5055494;28;45532;-63
2022/05/05 00:31:38;;;;;;;;;12.67;12.00;;;;;16.23;52.59;101328.06;5054506;28;46117;-63
2022/05/05 00:34:04;;;;;;;;;13.00;12.00;;;;;16.17;51.88;101333.63;5052847;28;45485;-63
2022/05/05 00:36:29;;;;;;;;;14.00;13.67;;;;;16.05;52.13;101324.47;5070836;28;45590;-61
2022/05/05 00:38:55;;;;;;;;;13.67;12.00;;;;;16.01;52.34;101328.22;5074514;28;45591;-63
2022/05/05 00:41:20;;;;;;;;;14.33;14.33;;;;;16.00;52.45;101326.47;5074409;28;45441;-61
2022/05/05 00:43:46;;;;;;;;;13.67;13.67;;;;;15.90;52.62;101326.06;5074463;28;45571;-64
2022/05/05 00:46:11;;;;;;;;;14.33;14.33;;;;;15.94;53.02;101324.13;5057347;28;45450;-59
2022/05/05 00:48:36;;;;;;;;;14.67;14.00;;;;;15.94;53.01;101317.94;5054195;28;45461;-60
2022/05/05 00:51:02;;;;;;;;;15.00;15.00;;;;;15.93;52.64;101318.88;5055027;28;45522;-63
2022/05/05 00:53:27;;;;;;;;;12.00;12.00;;;;;15.90;52.26;101322.50;5054133;28;45481;-61
2022/05/05 00:56:02;;;;;;;;;15.67;15.67;;;;;15.84;52.27;101330.75;5065098;28;46039;-61
2022/05/05 00:58:29;;;;;;;;;15.00;13.67;;;;;15.76;52.32;101319.66;5072886;28;45536;-63
2022/05/05 01:00:55;;;;;;;;;12.00;12.00;;;;;15.70;53.26;101325.25;5073821;27;45422;-62
2022/05/05 01:03:21;;;;;;;;;13.67;13.67;;;;;15.67;53.42;101327.06;5073950;28;45373;-62
2022/05/05 01:05:47;;;;;;;;;15.00;14.00;;;;;15.68;52.54;101317.31;5066175;27;45584;-61
2022/05/05 01:08:12;;;;;;;;;9.00;9.00;;;;;15.71;52.37;101329.59;5074251;28;45391;-62
2022/05/05 01:10:37;;;;;;;;;12.00;12.00;;;;;15.63;52.82;101330.75;5073948;28;45534;-61
2022/05/05 01:13:03;;;;;;;;;12.67;12.67;;;;;15.62;52.63;101326.41;5070244;28;45540;-62
2022/05/05 01:15:29;;;;;;;;;12.00;12.00;;;;;15.60;52.73;101330.91;5077628;28;45391;-61
2022/05/05 01:17:55;;;;;;;;;11.33;10.33;;;;;15.64;52.00;101331.66;5074204;28;45490;-63
2022/05/05 01:20:22;;;;;;;;;11.00;11.00;;;;;15.57;52.55;101320.44;5075383;28;47967;-62
2022/05/05 01:22:49;;;;;;;;;13.00;12.67;;;;;15.54;52.90;101336.47;5076092;28;45753;-61
2022/05/05 01:28:11;;;;;;;;;11.00;10.00;;;;;15.50;52.16;101332.25;5075850;28;45543;-61
2022/05/05 01:30:38;;;;;;;;;9.00;9.00;;;;;15.48;52.79;101327.94;5056949;28;46335;-61
2022/05/05 01:33:15;;;;;;;;;11.00;10.67;;;;;15.45;52.52;101332.47;5057211;28;45509;-61
2022/05/05 01:35:42;;;;;;;;;13.67;12.00;;;;;15.37;53.20;101331.06;5057453;28;45491;-63
2022/05/05 01:38:09;;;;;;;;;10.00;10.00;;;;;15.40;53.67;101326.50;5059256;28;45445;-62
2022/05/05 01:40:36;;;;;;;;;9.00;9.00;;;;;15.41;52.59;101332.66;5077155;28;45470;-61
2022/05/05 01:43:08;;;;;;;;;12.00;12.00;;;;;15.42;53.34;101324.66;5077385;28;45746;-62
2022/05/05 01:45:35;;;;;;;;;12.00;10.00;;;;;15.38;52.51;101316.88;5077418;28;45535;-63
2022/05/05 01:48:01;;;;;;;;;9.33;9.33;;;;;15.32;52.90;101322.47;5061671;28;45550;-63
2022/05/05 01:50:26;;;;;;;;;10.00;10.00;;;;;15.34;53.00;101321.47;5073214;28;47110;-61
2022/05/05 01:52:53;;;;;;;;;9.00;9.00;;;;;15.34;52.78;101328.53;5076936;28;45483;-61
2022/05/05 01:55:20;;;;;;;;;10.00;8.33;;;;;15.29;53.57;101318.16;5076017;28;45505;-62
2022/05/05 01:57:45;;;;;;;;;9.33;8.67;;;;;15.37;53.62;101326.63;5063972;28;45473;-61
2022/05/05 02:00:11;;;;;;;;;11.67;11.67;;;;;15.34;52.64;101328.53;5056090;28;46294;-60
2022/05/05 02:02:37;;;;;;;;;9.33;9.00;;;;;15.29;52.78;101334.06;5056873;28;46087;-62
2022/05/05 02:05:03;;;;;;;;;10.00;9.00;;;;;15.25;53.52;101325.34;5068809;28;45574;-61
2022/05/05 02:07:28;;;;;;;;;8.67;8.67;;;;;15.25;52.94;101327.16;5074769;28;45568;-61
2022/05/05 02:09:54;;;;;;;;;9.67;9.67;;;;;15.20;53.66;101329.97;5076427;28;45908;-61
2022/05/05 02:12:19;;;;;;;;;10.00;10.00;;;;;15.23;53.64;101334.28;5076679;28;45910;-62
2022/05/05 02:14:45;;;;;;;;;10.00;10.00;;;;;15.23;53.49;101329.88;5075037;28;45458;-62
2022/05/05 02:17:10;;;;;;;;;12.00;10.00;;;;;15.12;53.53;101331.25;5076488;28;45419;-62
2022/05/05 02:19:36;;;;;;;;;12.33;11.33;;;;;15.17;53.58;101334.56;5069066;28;46144;-62
2022/05/05 02:22:02;;;;;;;;;10.67;10.67;;;;;15.10;53.68;101331.34;5056704;28;45496;-61
2022/05/05 02:24:27;;;;;;;;;12.33;12.33;;;;;15.12;53.06;101332.09;5056782;28;45967;-63
2022/05/05 02:26:53;;;;;;;;;10.33;9.67;;;;;15.08;54.11;101330.53;5075322;28;45485;-61
2022/05/05 02:29:18;;;;;;;;;13.67;12.00;;;;;15.05;53.60;101319.22;5074566;28;48200;-61
2022/05/05 02:31:43;;;;;;;;;12.00;12.00;;;;;15.08;53.65;101317.28;5076110;28;45462;-61
2022/05/05 02:34:09;;;;;;;;;14.33;11.00;;;;;15.10;53.64;101322.50;5073377;28;45517;-61
2022/05/05 02:39:19;;;;;;;;;9.33;9.33;;;;;15.04;53.88;101318.31;5056178;28;45946;-60
2022/05/05 02:41:44;;;;;;;;;14.33;13.33;;;;;15.01;54.10;101314.00;5055984;28;45494;-61
2022/05/05 02:44:10;;;;;;;;;13.33;11.67;;;;;15.04;54.97;101320.97;5058225;28;46036;-60
2022/05/05 02:46:35;;;;;;;;;15.33;14.33;;;;;15.00;54.93;101319.41;5075204;28;45512;-61
2022/05/05 02:49:01;;;;;;;;;13.67;13.67;;;;;14.98;54.48;101310.66;5076033;28;46104;-60
2022/05/05 02:51:26;;;;;;;;;16.00;14.00;;;;;14.99;54.43;101313.25;5056204;28;45378;-62
2022/05/05 02:56:35;;;;;;;;;10.00;10.00;;;;;15.10;54.50;101312.78;5055493;28;45569;-59
2022/05/05 02:59:00;;;;;;;;;15.33;13.33;;;;;15.10;53.99;101315.44;5070255;28;49302;-61
2022/05/05 03:01:26;;;;;;;;;14.33;14.33;;;;;15.12;54.09;101313.56;5055739;28;45460;-61
2022/05/05 03:03:51;;;;;;;;;15.00;15.00;;;;;15.17;54.47;101319.53;5055728;28;45423;-61
2022/05/05 03:06:16;;;;;;;;;15.33;13.67;;;;;15.20;54.64;101316.75;5073665;28;45453;-62
2022/05/05 03:08:42;;;;;;;;;15.67;15.67;;;;;15.15;55.60;101318.75;5075838;28;45434;-63
2022/05/05 03:11:07;;;;;;;;;17.33;14.33;;;;;15.06;56.27;101316.47;5075904;28;45478;-61
2022/05/05 03:13:32;;;;;;;;;14.00;14.00;;;;;14.98;56.26;101321.25;5075835;28;46018;-60
2022/05/05 03:15:58;;;;;;;;;15.33;14.00;;;;;14.91;57.15;101323.31;5073628;28;45616;-61
2022/05/05 03:18:23;;;;;;;;;11.67;11.67;;;;;14.80;57.55;101326.41;5075624;28;46628;-60
2022/05/05 03:20:49;;;;;;;;;14.00;13.67;;;;;14.78;56.98;101330.88;5061522;28;45536;-61
2022/05/05 03:23:14;;;;;;;;;14.00;14.00;;;;;14.79;57.11;101327.31;5055471;28;45483;-61
2022/05/05 03:25:39;;;;;;;;;14.33;13.33;;;;;14.77;57.41;101315.91;5069249;28;45737;-61
2022/05/05 03:28:05;;;;;;;;;14.33;14.33;;;;;14.73;56.95;101329.34;5075606;28;46538;-61
2022/05/05 03:30:30;;;;;;;;;14.67;14.67;;;;;14.75;56.40;101320.41;5075571;28;45478;-63
2022/05/05 03:32:55;;;;;;;;;11.33;11.33;;;;;14.71;57.76;101324.09;5074118;28;45537;-61
2022/05/05 03:35:21;;;;;;;;;12.67;11.00;;;;;14.71;57.32;101321.47;5067335;28;47610;-62
2022/05/05 03:37:46;;;;;;;;;13.67;12.67;;;;;14.68;56.94;101326.88;5054768;28;45491;-62
2022/05/05 03:40:11;;;;;;;;;10.67;10.67;;;;;14.69;56.96;101323.31;5055185;28;45404;-62
2022/05/05 03:42:37;;;;;;;;;16.67;16.67;;;;;14.67;57.58;101325.16;5056176;28;45593;-60
2022/05/05 03:45:03;;;;;;;;;15.67;15.67;;;;;14.57;57.63;101306.16;5055088;28;45588;-62
2022/05/05 03:47:28;;;;;;;;;13.00;12.00;;;;;14.68;57.08;101329.53;5054867;28;45899;-63
2022/05/05 03:49:53;;;;;;;;;16.00;15.00;;;;;14.69;56.34;101325.09;5056140;28;45502;-63
2022/05/05 03:52:19;;;;;;;;;15.33;15.00;;;;;14.74;57.09;101336.34;5055390;28;45452;-61
2022/05/05 03:54:44;;;;;;;;;12.67;11.33;;;;;14.73;56.52;101335.50;5054978;28;45529;-64
2022/05/05 03:57:09;;;;;;;;;13.67;12.33;;;;;14.79;57.21;101335.25;5054775;28;46487;-61
2022/05/05 03:59:35;;;;;;;;;13.00;12.00;;;;;14.81;56.98;101337.84;5055117;28;45545;-62
2022/05/05 04:02:00;;;;;;;;;19.33;17.00;;;;;14.84;56.26;101337.72;5055985;28;45531;-63
2022/05/05 04:04:26;;;;;;;;;13.33;13.33;;;;;14.85;56.57;101331.47;5054860;28;45542;-62
2022/05/05 04:06:51;;;;;;;;;13.00;10.67;;;;;14.84;56.08;101339.50;5070659;28;46295;-62
2022/05/05 04:09:17;;;;;;;;;14.67;14.33;;;;;14.82;56.34;101322.81;5074875;28;45534;-64
2022/05/05 04:11:42;;;;;;;;;19.00;17.33;;;;;14.86;56.51;101338.53;5074888;28;45410;-62
2022/05/05 04:14:07;;;;;;;;;17.00;15.67;;;;;14.78;56.42;101337.97;5074971;28;45525;-62
2022/05/05 04:16:33;;;;;;;;;15.33;12.33;;;;;14.79;56.43;101334.38;5064220;28;46138;-62
2022/05/05 04:19:01;;;;;;;;;18.00;17.33;;;;;14.67;56.00;101325.16;5074889;28;45546;-61
2022/05/05 04:21:26;;;;;;;;;12.67;12.67;;;;;14.71;57.25;101342.63;5065381;27;45567;-62
2022/05/05 04:23:52;;;;;;;;;11.67;11.67;;;;;14.71;56.49;101344.44;5054575;28;45426;-62
2022/05/05 04:26:18;;;;;;;;;17.67;15.67;;;;;14.70;57.20;101346.22;5064844;28;46274;-62
2022/05/05 04:28:46;;;;;;;;;16.33;14.33;;;;;14.72;56.95;101347.03;5072840;28;46057;-62
2022/05/05 04:31:14;;;;;;;;;17.00;15.00;;;;;14.74;57.35;101347.81;5074592;28;45513;-62
2022/05/05 04:33:40;;;;;;;;;15.33;15.33;;;;;14.60;57.12;101350.16;5074837;28;45445;-63
2022/05/05 04:36:07;;;;;;;;;15.00;12.33;;;;;14.55;57.42;101362.72;5064969;28;46323;-61
2022/05/05 04:38:33;;;;;;;;;16.00;14.33;;;;;14.46;58.16;101355.97;5055204;28;45485;-63
2022/05/05 04:40:59;;;;;;;;;14.00;12.33;;;;;14.32;58.65;101367.09;5054305;28;45505;-61
2022/05/05 04:43:24;;;;;;;;;16.33;15.00;;;;;14.23;59.23;101364.78;5054168;28;45458;-62
2022/05/05 04:45:50;;;;;;;;;12.67;12.67;;;;;14.14;58.96;101360.72;5055056;28;45869;-61
2022/05/05 04:48:15;;;;;;;;;16.33;16.33;;;;;14.07;60.06;101358.38;5053104;28;45474;-61
2022/05/05 04:50:40;;;;;;;;;16.00;16.00;;;;;14.05;59.42;101361.09;5060859;28;45450;-62
2022/05/05 04:53:06;;;;;;;;;16.00;16.00;;;;;14.05;59.27;101362.84;5077750;28;45335;-62
2022/05/05 04:55:31;;;;;;;;;19.33;17.33;;;;;14.03;59.97;101375.28;5075941;28;45483;-61
2022/05/05 04:57:57;;;;;;;;;15.67;15.33;;;;;14.05;59.23;101362.84;5077482;28;53466;-62
2022/05/05 05:00:22;;;;;;;;;19.00;17.67;;;;;14.02;59.94;101365.59;5078006;27;45597;-61
2022/05/05 05:02:48;;;;;;;;;19.00;18.00;;;;;14.00;60.43;101372.75;5078096;27;45418;-61
2022/05/05 05:05:14;;;;;;;;;18.67;18.00;;;;;13.99;60.68;101371.88;5076115;28;45505;-62
2022/05/05 05:07:39;;;;;;;;;17.33;17.33;;;;;13.93;60.54;101367.66;5076835;28;45417;-61
2022/05/05 05:10:05;;;;;;;;;19.33;18.33;;;;;13.99;60.80;101381.59;5078503;28;45544;-63
2022/05/05 05:12:30;;;;;;;;;22.00;21.67;;;;;13.99;60.62;101371.88;5078597;27;45587;-61
2022/05/05 05:14:55;;;;;;;;;22.67;20.67;;;;;14.05;60.24;101381.34;5077838;28;45468;-61
2022/05/05 05:17:21;;;;;;;;;20.00;19.67;;;;;14.04;60.20;101383.16;5075359;28;45533;-62
2022/05/05 05:19:46;;;;;;;;;23.67;21.33;;;;;14.06;60.85;101383.97;5077839;28;45521;-63
2022/05/05 05:22:12;;;;;;;;;21.33;20.33;;;;;14.00;60.74;101378.91;5062690;28;45550;-62
2022/05/05 05:24:37;;;;;;;;;19.00;14.33;;;;;14.00;61.57;101383.34;5055761;28;46742;-61
2022/05/05 05:27:03;;;;;;;;;22.33;19.67;;;;;13.98;61.53;101385.16;5059107;28;45560;-63
2022/05/05 05:29:28;;;;;;;;;19.33;19.33;;;;;14.05;61.03;101397.22;5055820;28;45507;-60
2022/05/05 05:31:53;;;;;;;;;21.33;20.67;;;;;14.06;61.01;101385.75;5058010;28;45436;-62
2022/05/05 05:34:19;;;;;;;;;19.00;16.67;;;;;14.12;61.43;101396.09;5056673;28;46448;-63
2022/05/05 05:36:44;;;;;;;;;21.33;20.33;;;;;14.15;61.37;101399.47;5066190;28;45529;-61
2022/05/05 05:39:09;;;;;;;;;23.00;20.67;;;;;14.10;61.58;101393.53;5077108;28;45456;-62
2022/05/05 05:41:35;;;;;;;;;18.00;17.33;;;;;14.16;61.14;101405.66;5066366;28;45454;-61
2022/05/05 05:44:01;;;;;;;;;28.67;25.33;;;;;14.23;61.58;101403.63;5056608;28;45540;-62
2022/05/05 05:46:26;;;;;;;;;27.67;26.67;;;;;14.22;61.62;101408.06;5061560;28;45574;-60
2022/05/05 05:48:52;;;;;;;;;24.33;24.33;;;;;14.21;61.42;101409.00;5077052;28;45529;-61
2022/05/05 05:51:18;;;;;;;;;23.67;23.67;;;;;14.32;61.30;101405.94;5074708;28;45821;-62
2022/05/05 05:53:43;;;;;;;;;26.00;24.33;;;;;14.38;60.83;101408.34;5057482;28;46175;-60
2022/05/05 05:56:09;;;;;;;;;31.67;29.67;;;;;14.38;60.97;101403.06;5057792;28;45521;-61
2022/05/05 05:58:38;;;;;;;;;26.33;24.67;;;;;14.41;61.14;101410.88;5055394;28;45426;-62
2022/05/05 06:01:06;;;;;;;;;26.67;22.67;;;;;14.39;61.76;101406.56;5057523;28;45592;-60
2022/05/05 06:06:15;;;;;;;;;26.00;26.00;;;;;14.55;60.47;101405.94;5061944;28;45438;-63
2022/05/05 06:08:40;;;;;;;;;20.67;20.67;;;;;14.58;60.59;101413.75;5075662;28;45517;-62
2022/05/05 06:11:05;;;;;;;;;24.67;21.67;;;;;14.57;60.86;101412.03;5067974;28;45557;-61
2022/05/05 06:13:30;;;;;;;;;28.33;23.67;;;;;14.54;61.08;101414.81;5056024;28;58428;-62
2022/05/05 06:15:56;;;;;;;;;27.67;26.33;;;;;14.54;61.01;101409.50;5057630;28;45540;-63
2022/05/05 06:18:22;;;;;;;;;21.67;19.00;;;;;14.55;61.15;101397.97;5056281;28;45603;-62
2022/05/05 06:20:47;;;;;;;;;32.67;28.00;;;;;14.66;60.81;101402.00;5054808;28;45663;-62
2022/05/05 06:23:13;;;;;;;;;22.33;22.00;;;;;14.70;60.71;101417.72;5055105;28;46441;-61
2022/05/05 06:25:39;;;;;;;;;37.33;32.33;;;;;14.73;60.84;101409.66;5074288;27;45543;-61
2022/05/05 06:28:04;;;;;;;;;35.00;31.00;;;;;14.68;61.36;101413.41;5074978;28;45531;-60
2022/05/05 06:30:30;;;;;;;;;29.33;29.00;;;;;14.66;61.06;101418.75;5076239;28;45486;-62
2022/05/05 06:32:55;;;;;;;;;28.33;28.33;;;;;14.73;60.45;101416.72;5076098;28;45913;-61
2022/05/05 06:35:20;;;;;;;;;32.33;30.67;;;;;14.80;60.98;101427.03;5074247;28;48351;-62
2022/05/05 06:37:50;;;;;;;;;26.33;23.00;;;;;14.82;61.04;101419.00;5075856;28;45673;-62
2022/05/05 06:40:16;;;;;;;;;27.67;26.33;;;;;14.92;60.26;101430.09;5076029;28;45438;-62
2022/05/05 06:42:41;;;;;;;;;26.00;22.67;;;;;14.95;59.51;101425.53;5075624;28;46070;-61
2022/05/05 06:45:07;;;;;;;;;27.33;25.33;;;;;14.99;60.05;101423.63;5075672;28;45500;-61
2022/05/05 06:47:33;;;;;;;;;31.67;26.00;;;;;14.96;60.62;101431.69;5075707;28;45531;-61
2022/05/05 06:49:58;;;;;;;;;27.67;24.00;;;;;14.92;60.81;101430.09;5075838;28;45580;-62
2022/05/05 06:52:24;;;;;;;;;32.00;30.33;;;;;14.92;59.94;101424.81;5073855;28;45488;-61
2022/05/05 06:54:49;;;;;;;;;30.33;28.00;;;;;14.94;60.66;101438.84;5075784;28;45684;-61
2022/05/05 06:57:14;;;;;;;;;30.67;29.67;;;;;14.93;60.79;101439.75;5063683;28;45583;-63
2022/05/05 06:59:40;;;;;;;;;31.00;27.67;;;;;14.96;60.70;101440.53;5075891;28;45560;-62
2022/05/05 07:02:06;;;;;;;;;32.67;30.33;;;;;14.99;60.20;101440.41;5075273;28;45493;-60
2022/05/05 07:07:17;;;;;;;;;32.33;29.00;;;;;14.98;60.83;101441.31;5074951;28;45554;-61
2022/05/05 07:12:29;;;;;;;;;33.33;31.33;;;;;15.03;60.22;101441.13;5074114;28;45507;-62
2022/05/05 07:14:55;;;;;;;;;28.67;27.67;;;;;15.03;60.74;101452.56;5075058;27;45590;-62
2022/05/05 07:17:21;;;;;;;;;27.00;26.33;;;;;15.04;60.82;101453.44;5074699;28;45504;-60
2022/05/05 07:19:46;;;;;;;;;34.00;30.67;;;;;15.03;60.72;101455.22;5075149;28;45507;-62
2022/05/05 07:22:12;;;;;;;;;31.33;29.00;;;;;14.99;60.92;101458.94;5073051;28;45994;-62
2022/05/05 07:24:37;;;;;;;;;27.67;25.67;;;;;14.95;60.48;101459.13;5074037;28;45489;-62
2022/05/05 07:27:03;;;;;;;;;29.00;28.33;;;;;14.92;60.89;101464.53;5075573;28;45467;-62
2022/05/05 07:29:30;;;;;;;;;27.00;24.67;;;;;14.94;61.12;101468.00;5074301;28;45429;-62
2022/05/05 07:31:56;;;;;;;;;28.00;24.67;;;;;14.99;61.05;101458.06;5064850;28;45602;-61
2022/05/05 07:34:22;;;;;;;;;35.67;33.33;;;;;15.01;61.09;101467.66;5054865;28;45521;-63
2022/05/05 07:36:48;;;;;;;;;37.33;29.67;;;;;14.95;60.79;101467.91;5055971;28;45484;-63
2022/05/05 07:39:13;;;;;;;;;32.33;28.33;;;;;15.00;60.80;101473.03;5054767;28;45510;-61
2022/05/05 07:41:39;;;;;;;;;32.33;29.33;;;;;14.94;60.87;101468.84;5062310;28;45568;-60
2022/05/05 07:44:05;;;;;;;;;26.67;26.33;;;;;15.01;61.12;101472.97;5073755;28;45422;-61
2022/05/05 07:46:35;;;;;;;;;26.00;24.67;;;;;15.07;60.65;101465.69;5073518;28;45494;-62
2022/05/05 07:49:01;;;;;;;;;28.33;27.33;;;;;15.08;60.19;101470.94;5074964;28;45595;-61
2022/05/05 07:51:28;;;;;;;;;23.00;22.00;;;;;15.14;60.14;101478.63;5073128;28;46152;-62
2022/05/05 07:56:37;;;;;;;;;26.33;24.33;;;;;15.26;58.96;101482.59;5075377;28;45482;-63
2022/05/05 07:59:02;;;;;;;;;26.00;23.00;;;;;15.29;59.51;101476.31;5075301;27;45475;-62
2022/05/05 08:01:28;;;;;;;;;28.00;26.67;;;;;15.29;59.52;101474.53;5073401;28;46141;-63
2022/05/05 08:03:54;;;;;;;;;18.67;17.67;;;;;15.34;59.31;101487.56;5074942;28;45467;-62
2022/05/05 08:06:19;;;;;;;;;25.67;24.33;;;;;15.29;58.67;101466.56;5073327;28;45679;-62
2022/05/05 08:08:45;;;;;;;;;22.67;21.33;;;;;15.36;58.84;101480.41;5073141;28;45424;-61
2022/05/05 08:11:10;;;;;;;;;26.00;23.67;;;;;15.40;59.14;101480.22;5074937;28;45564;-61
2022/05/05 08:13:36;;;;;;;;;28.67;25.67;;;;;15.38;59.26;101476.78;5073512;28;45463;-61
2022/05/05 08:16:01;;;;;;;;;22.67;21.67;;;;;15.47;58.31;101480.81;5072875;28;45548;-61
2022/05/05 08:18:27;;;;;;;;;23.33;22.67;;;;;15.56;58.28;101475.16;5074377;28;45605;-62
2022/05/05 08:20:52;;;;;;;;;24.67;23.67;;;;;15.63;58.71;101481.91;5072115;27;46510;-60
2022/05/05 08:23:19;;;;;;;;;29.00;26.33;;;;;15.70;58.19;101485.22;5053155;28;45658;-60
2022/05/05 08:28:28;;;;;;;;;24.33;23.33;;;;;15.76;58.19;101500.00;5072616;28;45519;-61
2022/05/05 08:30:54;;;;;;;;;28.33;25.00;;;;;15.77;57.54;101494.63;5073837;28;45624;-60
2022/05/05 08:33:20;;;;;;;;;24.67;24.00;;;;;15.82;57.66;101489.97;5072998;28;45492;-63
2022/05/05 08:35:45;;;;;;;;;23.33;23.33;;;;;15.87;57.65;101495.09;5072512;28;45476;-61
2022/05/05 08:38:11;;;;;;;;;28.67;25.00;;;;;15.89;56.44;101495.91;5074251;28;45521;-61
2022/05/05 08:40:39;;;;;;;;;30.00;27.67;;;;;15.92;56.29;101492.25;5074085;28;45541;-62
2022/05/05 08:43:05;;;;;;;;;27.00;27.00;;;;;15.96;57.23;101494.72;5070437;28;45824;-62
2022/05/05 08:45:31;;;;;;;;;26.00;26.00;;;;;16.02;57.03;101496.22;5074192;27;45498;-61
2022/05/05 08:48:03;;;;;;;;;26.33;26.33;;;;;16.02;56.69;101504.19;5074573;28;45628;-62
2022/05/05 08:50:32;;;;;;;;;29.00;25.33;;;;;16.08;56.43;101496.81;5073468;27;45535;-61
2022/05/05 08:52:58;;;;;;;;;25.00;24.00;;;;;16.09;56.69;101503.84;5053708;28;45590;-61
2022/05/05 08:55:25;;;;;;;;;25.00;23.67;;;;;16.11;56.40;101506.44;5054039;28;46064;-62
2022/05/05 08:57:50;;;;;;;;;28.00;25.00;;;;;16.17;55.19;101500.84;5053834;28;45507;-62
2022/05/05 09:00:16;;;;;;;;;25.00;24.00;;;;;16.26;56.15;101504.91;5053007;28;59078;-62
2022/05/05 09:02:43;;;;;;;;;27.33;26.00;;;;;16.30;55.64;101503.81;5055045;28;45413;-61
2022/05/05 09:05:09;;;;;;;;;24.00;22.00;;;;;16.38;55.66;101507.00;5053681;28;45448;-63
2022/05/05 09:07:54;;;;;;;;;21.00;20.67;;;;;16.48;55.18;101507.44;5070115;28;45565;-61
2022/05/05 09:10:21;;;;;;;;;29.67;26.67;;;;;16.58;55.21;101511.41;5073514;27;46690;-62
2022/05/05 09:13:01;;;;;;;;;29.00;24.33;;;;;16.64;55.15;101503.16;5072806;28;45570;-62
2022/05/05 09:15:33;;;;;;;;;21.00;21.00;;;;;16.69;54.45;101495.84;5071528;28;45484;-61
2022/05/05 09:18:21;;;;;;;;;23.67;23.67;;;;;16.75;54.10;101507.97;5073842;27;45461;-61
2022/05/05 09:20:48;;;;;;;;;21.67;21.67;;;;;16.82;54.69;101505.91;5073419;28;46176;-62
2022/05/05 09:23:36;;;;;;;;;27.00;27.00;;;;;16.88;53.92;101510.94;5073534;28;45619;-63
2022/05/05 09:26:08;;;;;;;;;27.67;26.33;;;;;16.89;53.56;101518.84;5073912;27;45533;-63
2022/05/05 09:28:38;;;;;;;;;27.67;25.00;;;;;16.82;53.90;101509.44;5073762;28;45529;-62
2022/05/05 09:31:08;;;;;;;;;27.33;24.67;;;;;16.78;54.21;101511.38;5071162;28;46472;-62
2022/05/05 09:33:33;;;;;;;;;28.00;24.00;;;;;16.75;54.56;101513.28;5072416;28;45427;-61
2022/05/05 09:36:02;;;;;;;;;20.67;20.67;;;;;16.64;54.24;101505.81;5075173;28;45475;-61
2022/05/05 09:38:55;;;;;;;;;24.00;23.33;;;;;16.62;54.74;101520.94;5056949;28;45832;-61
2022/05/05 09:41:22;;;;;;;;;23.00;21.67;;;;;16.66;53.78;101506.59;5056974;28;46130;-62
2022/05/05 09:43:47;;;;;;;;;18.00;16.67;;;;;16.69;54.27;101498.50;5056826;28;45524;-61
2022/05/05 09:46:22;;;;;;;;;19.33;19.33;;;;;16.72;53.85;101510.78;5056961;28;45777;-60
2022/05/05 09:48:48;;;;;;;;;20.33;19.33;;;;;16.76;53.47;101505.25;5056790;28;45508;-60
2022/05/05 09:51:14;;;;;;;;;18.00;15.33;;;;;16.78;53.61;101495.44;5056513;28;46735;-63
2022/05/05 09:57:40;;;;;;;;;14.00;13.33;;;;;16.99;52.08;101506.84;5063669;28;45369;-62
2022/05/05 09:59:39;;;;;;;;;13.00;13.00;;;;;17.07;51.78;101509.13;5076443;28;45685;-63
2022/05/05 10:04:00;;;;;;;;;17.33;17.33;;;;;17.15;51.59;101516.75;5075513;27;45565;-62
2022/05/05 10:05:05;;;;;;;;;16.33;16.33;;;;;17.20;50.67;101512.94;5076227;28;45466;-62
2022/05/05 10:07:33;;;;;;;;;10.33;8.00;;;;;17.21;49.99;101511.13;5061432;28;45427;-62
2022/05/05 10:09:59;;;;;;;;;10.33;9.67;;;;;17.20;49.48;101514.72;5056106;28;45600;-61
2022/05/05 10:12:27;;;;;;;;;13.00;13.00;;;;;17.22;49.99;101518.16;5055796;28;46335;-63
2022/05/05 10:14:53;;;;;;;;;14.33;13.67;;;;;17.21;49.92;101519.09;5056273;28;45493;-62
2022/05/05 10:17:18;;;;;;;;;10.33;9.33;;;;;17.23;50.16;101512.78;5067515;28;45552;-63
2022/05/05 10:19:44;;;;;;;;;11.00;11.00;;;;;17.26;49.84;101514.44;5076236;28;45463;-61
2022/05/05 10:22:17;;;;;;;;;11.00;11.00;;;;;17.26;49.65;101511.75;5066248;28;46022;-62
2022/05/05 10:25:02;;;;;;;;;14.00;12.00;;;;;17.31;49.42;101514.22;5055948;28;45515;-63
2022/05/05 10:27:27;;;;;;;;;13.33;12.67;;;;;17.34;49.36;101520.22;5068702;28;45532;-63
2022/05/05 10:29:52;;;;;;;;;12.67;11.00;;;;;17.36;49.58;101509.53;5076315;28;45469;-61
2022/05/05 10:32:25;;;;;;;;;14.00;12.33;;;;;17.41;49.15;101512.84;5076129;28;46035;-62
2022/05/05 10:35:29;;;;;;;;;13.00;11.67;;;;;17.38;48.73;101512.94;5076360;28;45486;-61
2022/05/05 10:37:54;;;;;;;;;11.33;11.33;;;;;17.35;48.30;101505.13;5036645;28;45513;-62
2022/05/05 10:40:20;;;;;;;;;12.00;12.00;;;;;17.33;48.99;101504.34;5052064;28;45729;-62
2022/05/05 10:42:50;;;;;;;;;12.67;12.33;;;;;17.29;48.53;101510.75;5055866;28;45416;-63
2022/05/05 10:45:17;;;;;;;;;11.00;10.00;;;;;17.21;47.56;101511.13;5055612;28;45547;-63
2022/05/05 10:47:55;;;;;;;;;9.00;9.00;;;;;17.19;48.07;101515.66;5060937;28;45504;-61
2022/05/05 10:50:31;;;;;;;;;10.00;10.00;;;;;17.17;47.41;101517.53;5070456;27;45530;-62
2022/05/05 10:52:57;;;;;;;;;8.67;8.67;;;;;17.19;47.81;101505.00;5055483;28;46266;-62
2022/05/05 10:55:26;;;;;;;;;11.00;11.00;;;;;17.22;48.15;101511.06;5055417;28;45494;-62
2022/05/05 10:57:51;;;;;;;;;12.00;12.00;;;;;17.28;48.36;101511.72;5070444;28;45529;-63
2022/05/05 11:00:18;;;;;;;;;10.00;10.00;;;;;17.29;48.48;101503.63;5073901;28;45629;-63
2022/05/05 11:02:58;;;;;;;;;9.00;8.67;;;;;17.35;48.40;101508.66;5075747;28;45500;-64
2022/05/05 11:05:27;;;;;;;;;9.33;9.00;;;;;17.43;48.22;101505.59;5074522;28;45434;-62
2022/05/05 11:07:54;;;;;;;;;9.67;8.00;;;;;17.50;47.33;101503.53;5054163;28;45402;-63
2022/05/05 11:10:41;;;;;;;;;9.33;9.33;;;;;17.52;47.14;101499.00;5060217;28;45464;-63
2022/05/05 11:13:08;;;;;;;;;11.67;11.00;;;;;17.54;47.68;101499.75;5075272;27;46519;-63
2022/05/05 11:21:35;;;;;;;;;12.00;11.00;;;;;17.68;46.94;101499.94;5073586;28;45577;-63
2022/05/05 11:24:02;;;;;;;;;9.00;9.00;;;;;17.67;46.00;101496.41;5075208;28;46133;-64
2022/05/05 11:26:28;;;;;;;;;10.33;8.67;;;;;17.61;46.15;101496.72;5075023;28;45500;-62
2022/05/05 11:28:53;;;;;;;;;10.00;9.33;;;;;17.60;46.46;101500.31;5075342;28;45487;-62
2022/05/05 11:31:28;;;;;;;;;8.00;8.00;;;;;17.55;47.01;101498.84;5060788;28;45559;-61
2022/05/05 11:34:04;;;;;;;;;7.00;7.00;;;;;17.48;46.46;101490.28;5063090;28;46074;-61
2022/05/05 11:36:33;;;;;;;;;12.00;9.00;;;;;17.44;46.86;101499.38;5067131;28;45698;-62
2022/05/05 11:38:59;;;;;;;;;10.00;10.00;;;;;17.45;46.87;101493.09;5060470;28;45545;-63
2022/05/05 11:41:26;;;;;;;;;7.00;7.00;;;;;17.43;46.98;101501.16;5053651;28;45589;-64
2022/05/05 11:46:37;;;;;;;;;10.67;9.00;;;;;17.48;46.32;101497.41;5074065;28;45499;-60
2022/05/05 11:49:02;;;;;;;;;8.67;7.33;;;;;17.44;46.55;101504.69;5074104;28;45523;-61